Notice: Undefined index: language in /home/u232659314/public_html/vam/index.php on line 31
Pluna Virtual

METAR AND TAF INFORMATION
METAR FOR SEQM
ADDS - METARS form results

(2148 UTC 24 May 2019)
Data provider http://aviationweather.gov/metar/data/
 
METAR text: SEQM 242100Z 01013KT 9999 SCT040 SCT100 19/13 Q1022 NOSIG RMK A3018
Conditions at: SEQM (QUITO/NEW INTL , EC) observed 2100 UTC 24 May 2019
Temperature: 19.0°C (66°F)
Dewpoint: 13.0°C (55°F) [RH = 68%]
Pressure (altimeter): 30.18 inches Hg (1022.0 mb)
Winds: from the N (10 degrees) at 15 MPH (13 knots; 6.7 m/s)
Visibility: 6 or more miles (10+ km)
Ceiling: at least 12,000 feet AGL
Clouds: scattered clouds at 4000 feet AGL
scattered clouds at 10000 feet AGL
Weather: no significant weather observed at this time

AIRPORT MAP

RUNWAY INFORMATION
Runway 18 Runway length 13445 ft Runway width 148 ft
Runway elevation 7776 ft Runway displaced threshold 0 ft Runway heading 180
Runway 36 Runway length 13445 ft Runway width 148 ft
Runway elevation 7910 ft Runway displaced threshold 0 ft Runway heading 360

AIRPORT FREQUENCIES
Type APPR Name Quito Appr Frequency 119.7 MHZ
Type APPR2 Name Quito Appr Frequency 121.2 MHZ
Type ATIS Name ATIS Frequency 115.3 MHZ
Type GRD Name Quito Grou Frequency 121.9 MHZ
Type TWR Name Quito Towe Frequency 118.1 MHZ

AIRPORT NEAR NAVIGATION AIDS